Time,TemperatureF,DewpointF,PressureIn,WindDirection,WindDirectionDegrees,WindSpeedMPH,WindSpeedGustMPH,Humidity,HourlyPrecipIn,Conditions,Clouds,dailyrainin,SoftwareType,DateUTC
2013-05-21 00:01:00,68.8,67.9,30.01,SE,146,0.0,0.0,97,0.00,RA,,0.00,WeatherDisplay:10.37,2013-05-21 04:01:00,
2013-05-21 00:06:00,68.9,68.0,30.00,SSE,157,0.0,0.0,97,0.00,RA,,0.00,WeatherDisplay:10.37,2013-05-21 04:06:00,
2013-05-21 00:11:00,68.8,67.9,30.00,ENE,70,1.1,1.1,97,0.00,CLR,,0.00,WeatherDisplay:10.37,2013-05-21 04:11:00,
2013-05-21 00:16:00,68.8,67.9,30.00,SW,219,1.1,1.1,97,0.00,CLR,,0.00,WeatherDisplay:10.37,2013-05-21 04:16:00,
2013-05-21 00:21:00,68.8,67.9,30.00,ESE,115,2.3,2.3,97,0.00,CLR,,0.00,WeatherDisplay:10.37,2013-05-21 04:21:00,
2013-05-21 00:26:00,68.8,67.9,30.00,ENE,75,1.1,1.1,97,0.00,CLR,,0.00,WeatherDisplay:10.37,2013-05-21 04:26:00,
2013-05-21 00:31:00,68.8,67.9,30.00,SSW,193,0.0,0.0,97,0.00,CLR,,0.00,WeatherDisplay:10.37,2013-05-21 04:31:00,
2013-05-21 00:36:00,68.8,67.9,30.00,SSE,157,3.5,3.5,97,0.00,CLR,,0.00,WeatherDisplay:10.37,2013-05-21 04:36:00,
2013-05-21 00:41:00,68.8,67.9,30.00,SE,133,0.0,0.0,97,0.00,CLR,,0.00,WeatherDisplay:10.37,2013-05-21 04:41:00,
2013-05-21 00:46:00,68.8,67.9,30.00,East,81,1.1,1.1,97,0.00,CLR,,0.00,WeatherDisplay:10.37,2013-05-21 04:46:00,
2013-05-21 00:51:00,68.8,67.9,30.00,ESE,108,2.3,2.3,97,0.00,CLR,,0.00,WeatherDisplay:10.37,2013-05-21 04:51:00,
2013-05-21 00:56:00,68.8,67.9,30.00,East,81,1.0,0.0,97,0.00,CLR,,0.00,WeatherDisplay:10.37,2013-05-21 04:56:00,
2013-05-21 01:01:00,68.8,67.9,29.99,East,86,1.1,1.1,97,0.00,CLR,,0.00,WeatherDisplay:10.37,2013-05-21 05:01:00,
2013-05-21 01:06:00,68.8,67.9,29.99,East,94,1.1,1.1,97,0.00,CLR,,0.00,WeatherDisplay:10.37,2013-05-21 05:06:00,
2013-05-21 01:11:00,68.8,67.9,29.99,ESE,108,1.1,0.0,97,0.00,CLR,,0.00,WeatherDisplay:10.37,2013-05-21 05:11:00,
2013-05-21 01:16:00,68.7,67.8,29.99,ESE,109,1.1,1.1,97,0.00,CLR,,0.00,WeatherDisplay:10.37,2013-05-21 05:16:00,
2013-05-21 01:21:00,68.7,67.8,29.99,SE,127,2.3,2.3,97,0.00,CLR,,0.00,WeatherDisplay:10.37,2013-05-21 05:21:00,
2013-05-21 01:26:00,68.7,67.8,29.99,SE,126,0.0,0.0,97,0.00,CLR,,0.00,WeatherDisplay:10.37,2013-05-21 05:26:00,
2013-05-21 01:31:00,68.7,67.8,29.99,NNE,18,0.0,0.0,97,0.00,CLR,,0.00,WeatherDisplay:10.37,2013-05-21 05:31:00,
2013-05-21 01:36:00,68.7,67.8,29.99,WNW,283,1.1,1.1,97,0.00,CLR,,0.00,WeatherDisplay:10.37,2013-05-21 05:36:00,
2013-05-21 01:41:00,68.6,67.7,30.00,ESE,104,1.1,1.1,97,0.00,CLR,,0.00,WeatherDisplay:10.37,2013-05-21 05:41:00,
2013-05-21 01:46:00,68.7,67.8,29.99,WSW,244,2.3,2.3,97,0.00,CLR,,0.00,WeatherDisplay:10.37,2013-05-21 05:46:00,
2013-05-21 01:51:00,68.7,67.8,30.00,SW,228,0.0,0.0,97,0.00,CLR,,0.00,WeatherDisplay:10.37,2013-05-21 05:51:00,
2013-05-21 01:56:00,68.7,67.8,29.99,ESE,108,0.0,0.0,97,0.00,CLR,,0.00,WeatherDisplay:10.37,2013-05-21 05:56:00,
2013-05-21 02:01:00,68.7,67.8,29.99,ESE,105,0.0,0.0,97,0.00,CLR,,0.00,WeatherDisplay:10.37,2013-05-21 06:01:00,
2013-05-21 02:06:00,68.7,67.8,29.99,SE,128,1.1,1.1,97,0.00,CLR,,0.00,WeatherDisplay:10.37,2013-05-21 06:06:00,
2013-05-21 02:11:00,68.7,67.8,29.99,SW,215,0.0,0.0,97,0.00,CLR,,0.00,WeatherDisplay:10.37,2013-05-21 06:11:00,
2013-05-21 02:16:00,68.7,67.8,29.99,SE,146,0.0,0.0,97,0.00,CLR,,0.00,WeatherDisplay:10.37,2013-05-21 06:16:00,
2013-05-21 02:21:00,68.7,67.8,29.99,SE,130,0.0,0.0,97,0.00,CLR,,0.00,WeatherDisplay:10.37,2013-05-21 06:21:00,
2013-05-21 02:26:00,68.7,67.8,29.99,SSE,153,1.0,0.0,97,0.00,CLR,,0.00,WeatherDisplay:10.37,2013-05-21 06:26:00,
2013-05-21 02:31:00,68.7,67.8,29.99,SE,126,2.3,2.3,97,0.00,CLR,,0.00,WeatherDisplay:10.37,2013-05-21 06:31:00,
2013-05-21 02:36:00,68.7,67.8,29.99,ENE,74,0.0,0.0,97,0.00,CLR,,0.00,WeatherDisplay:10.37,2013-05-21 06:36:00,
2013-05-21 02:41:00,68.6,67.7,29.99,NE,50,0.0,0.0,97,0.00,CLR,,0.00,WeatherDisplay:10.37,2013-05-21 06:41:00,
2013-05-21 02:46:00,68.5,67.6,29.99,ENE,68,1.1,0.0,97,0.00,CLR,,0.00,WeatherDisplay:10.37,2013-05-21 06:46:00,
2013-05-21 02:51:00,68.5,67.6,29.99,ENE,69,0.0,0.0,97,0.00,CLR,,0.00,WeatherDisplay:10.37,2013-05-21 06:51:00,
2013-05-21 02:56:00,68.5,67.6,29.99,ENE,68,0.0,0.0,97,0.00,CLR,,0.00,WeatherDisplay:10.37,2013-05-21 06:56:00,
2013-05-21 03:01:00,68.4,67.5,29.99,SSE,148,0.0,0.0,97,0.00,CLR,,0.00,WeatherDisplay:10.37,2013-05-21 07:01:00,
2013-05-21 03:06:00,68.4,67.5,29.98,SSE,148,0.0,0.0,97,0.00,CLR,,0.00,WeatherDisplay:10.37,2013-05-21 07:06:00,
2013-05-21 03:11:00,68.4,67.5,29.99,SSE,148,0.0,0.0,97,0.00,CLR,,0.00,WeatherDisplay:10.37,2013-05-21 07:11:00,
2013-05-21 03:16:00,68.5,67.6,29.99,SE,146,0.0,0.0,97,0.00,CLR,,0.00,WeatherDisplay:10.37,2013-05-21 07:16:00,
2013-05-21 03:21:00,68.5,67.6,29.99,East,101,1.1,1.1,97,0.00,CLR,,0.00,WeatherDisplay:10.37,2013-05-21 07:21:00,
2013-05-21 03:26:00,68.5,67.6,29.99,East,101,0.0,0.0,97,0.00,CLR,,0.00,WeatherDisplay:10.37,2013-05-21 07:26:00,
2013-05-21 03:31:00,68.5,67.6,29.99,East,101,0.0,0.0,97,0.00,CLR,,0.00,WeatherDisplay:10.37,2013-05-21 07:31:00,
2013-05-21 03:36:00,68.5,67.6,29.99,SSW,205,1.1,1.1,97,0.00,CLR,,0.00,WeatherDisplay:10.37,2013-05-21 07:36:00,
2013-05-21 03:41:00,68.5,67.6,29.99,SE,133,0.0,0.0,97,0.00,CLR,,0.00,WeatherDisplay:10.37,2013-05-21 07:41:00,
2013-05-21 03:46:00,68.6,67.7,29.98,East,84,0.0,0.0,97,0.00,CLR,,0.00,WeatherDisplay:10.37,2013-05-21 07:46:00,
2013-05-21 03:51:00,68.6,67.7,29.98,SE,124,2.3,2.3,97,0.00,CLR,,0.00,WeatherDisplay:10.37,2013-05-21 07:51:00,
2013-05-21 03:56:00,68.5,67.6,29.98,SE,144,0.0,0.0,97,0.00,CLR,,0.00,WeatherDisplay:10.37,2013-05-21 07:56:00,
2013-05-21 04:01:00,68.5,67.6,29.98,ESE,106,1.1,0.0,97,0.00,CLR,,0.00,WeatherDisplay:10.37,2013-05-21 08:01:00,
2013-05-21 04:06:00,68.5,67.6,29.98,West,262,0.0,0.0,97,0.00,CLR,,0.00,WeatherDisplay:10.37,2013-05-21 08:06:00,
2013-05-21 04:11:00,68.5,67.6,29.99,West,262,0.0,0.0,97,0.00,CLR,,0.00,WeatherDisplay:10.37,2013-05-21 08:11:00,
2013-05-21 04:16:00,68.5,67.6,29.99,West,262,0.0,0.0,97,0.00,CLR,,0.00,WeatherDisplay:10.37,2013-05-21 08:16:00,
2013-05-21 04:21:00,68.5,67.6,29.98,West,268,1.0,0.0,97,0.00,CLR,,0.00,WeatherDisplay:10.37,2013-05-21 08:21:00,
2013-05-21 04:26:00,68.5,67.6,29.99,West,267,0.0,0.0,97,0.00,CLR,,0.00,WeatherDisplay:10.37,2013-05-21 08:26:00,
2013-05-21 04:31:00,68.5,67.6,29.99,SSE,153,1.1,0.0,97,0.00,CLR,,0.00,WeatherDisplay:10.37,2013-05-21 08:31:00,
2013-05-21 04:36:00,68.5,67.6,29.98,SSE,154,0.0,0.0,97,0.00,CLR,,0.00,WeatherDisplay:10.37,2013-05-21 08:36:00,
2013-05-21 04:41:00,68.5,67.6,29.98,SSE,152,0.0,0.0,97,0.00,CLR,,0.00,WeatherDisplay:10.37,2013-05-21 08:41:00,
2013-05-21 04:46:00,68.5,67.6,29.98,SSE,152,0.0,0.0,97,0.00,CLR,,0.00,WeatherDisplay:10.37,2013-05-21 08:46:00,
2013-05-21 04:51:00,68.5,67.6,29.98,SSE,152,0.0,0.0,97,0.00,CLR,,0.00,WeatherDisplay:10.37,2013-05-21 08:51:00,
2013-05-21 04:56:00,68.5,67.6,29.98,ENE,72,0.0,0.0,97,0.00,CLR,,0.00,WeatherDisplay:10.37,2013-05-21 08:56:00,
2013-05-21 05:01:00,68.5,67.6,29.99,ESE,108,1.1,0.0,97,0.00,CLR,,0.00,WeatherDisplay:10.37,2013-05-21 09:01:00,
2013-05-21 05:06:00,68.5,67.6,29.99,WSW,238,2.3,2.3,97,0.00,CLR,,0.00,WeatherDisplay:10.37,2013-05-21 09:06:00,
2013-05-21 05:11:00,68.5,67.6,29.99,NNE,20,1.1,1.1,97,0.00,CLR,,0.00,WeatherDisplay:10.37,2013-05-21 09:11:00,
2013-05-21 05:16:00,68.5,67.6,29.99,ENE,68,0.0,0.0,97,0.00,CLR,,0.00,WeatherDisplay:10.37,2013-05-21 09:16:00,
2013-05-21 05:21:00,68.5,67.6,29.99,North,351,2.3,2.3,97,0.00,CLR,,0.00,WeatherDisplay:10.37,2013-05-21 09:21:00,
2013-05-21 05:26:00,68.6,67.4,29.99,East,89,0.0,0.0,96,0.00,CLR,,0.00,WeatherDisplay:10.37,2013-05-21 09:26:00,
2013-05-21 05:31:00,68.6,67.4,29.99,NW,316,1.0,1.0,96,0.00,CLR,,0.00,WeatherDisplay:10.37,2013-05-21 09:31:00,
2013-05-21 05:36:00,68.6,67.4,29.99,SW,219,1.1,0.0,96,0.00,CLR,,0.00,WeatherDisplay:10.37,2013-05-21 09:36:00,
2013-05-21 05:41:00,68.6,67.4,30.00,SW,219,0.0,0.0,96,0.00,CLR,,0.00,WeatherDisplay:10.37,2013-05-21 09:41:00,
2013-05-21 05:46:00,68.7,67.5,30.00,SW,219,0.0,0.0,96,0.00,CLR,,0.00,WeatherDisplay:10.37,2013-05-21 09:46:00,
2013-05-21 05:51:00,68.7,67.5,30.00,WSW,253,0.0,0.1,96,0.00,CLR,,0.00,WeatherDisplay:10.37,2013-05-21 09:51:00,
2013-05-21 05:56:00,68.6,67.4,30.00,WNW,298,2.3,2.3,96,0.00,CLR,,0.00,WeatherDisplay:10.37,2013-05-21 09:56:00,
2013-05-21 06:01:00,68.7,67.5,30.00,SSW,212,0.0,0.0,96,0.00,CLR,,0.00,WeatherDisplay:10.37,2013-05-21 10:01:00,
2013-05-21 06:06:00,68.7,67.5,30.01,WSW,253,0.0,0.0,96,0.00,CLR,,0.00,WeatherDisplay:10.37,2013-05-21 10:06:00,
2013-05-21 06:11:00,68.6,67.4,30.00,SW,229,1.0,1.0,96,0.00,CLR,,0.00,WeatherDisplay:10.37,2013-05-21 10:11:00,
2013-05-21 06:16:00,68.7,67.5,30.00,NE,44,2.3,2.3,96,0.00,CLR,,0.00,WeatherDisplay:10.37,2013-05-21 10:16:00,
2013-05-21 06:21:00,68.7,67.5,30.01,East,101,1.1,0.0,96,0.00,CLR,,0.00,WeatherDisplay:10.37,2013-05-21 10:21:00,
2013-05-21 06:26:00,68.7,67.5,30.01,WSW,249,1.1,0.0,96,0.00,CLR,,0.00,WeatherDisplay:10.37,2013-05-21 10:26:00,
2013-05-21 06:31:00,68.7,67.5,30.01,NW,321,1.1,0.0,96,0.00,CLR,,0.00,WeatherDisplay:10.37,2013-05-21 10:31:00,
2013-05-21 06:36:00,68.7,67.5,30.01,NW,323,0.0,0.0,96,0.00,CLR,,0.00,WeatherDisplay:10.37,2013-05-21 10:36:00,
2013-05-21 06:41:00,68.8,67.6,30.01,SE,137,0.0,0.0,96,0.00,CLR,,0.00,WeatherDisplay:10.37,2013-05-21 10:41:00,
2013-05-21 06:46:00,68.8,67.6,30.01,SE,127,0.0,0.2,96,0.00,CLR,,0.00,WeatherDisplay:10.37,2013-05-21 10:46:00,
2013-05-21 06:51:00,68.8,67.6,30.01,SE,127,0.0,0.0,96,0.00,CLR,,0.00,WeatherDisplay:10.37,2013-05-21 10:51:00,
2013-05-21 06:56:00,68.9,67.7,30.01,NE,44,1.0,0.0,96,0.00,CLR,,0.00,WeatherDisplay:10.37,2013-05-21 10:56:00,
2013-05-21 07:01:00,68.9,67.7,30.01,WSW,245,1.0,1.0,96,0.00,CLR,,0.00,WeatherDisplay:10.37,2013-05-21 11:01:00,
2013-05-21 07:06:00,68.9,67.7,30.01,ENE,77,1.1,1.1,96,0.00,CLR,,0.00,WeatherDisplay:10.37,2013-05-21 11:06:00,
2013-05-21 07:11:00,69.0,67.8,30.01,East,101,0.0,0.0,96,0.00,CLR,,0.00,WeatherDisplay:10.37,2013-05-21 11:11:00,
2013-05-21 07:16:00,69.0,67.8,30.02,East,101,0.0,0.0,96,0.00,CLR,,0.00,WeatherDisplay:10.37,2013-05-21 11:16:00,
2013-05-21 07:21:00,69.1,67.9,30.01,East,101,0.0,0.0,96,0.00,CLR,,0.00,WeatherDisplay:10.37,2013-05-21 11:21:00,
2013-05-21 07:26:00,69.1,67.9,30.01,NNE,18,1.1,1.1,96,0.00,CLR,,0.00,WeatherDisplay:10.37,2013-05-21 11:26:00,
2013-05-21 07:31:00,69.1,67.9,30.01,South,170,2.3,2.3,96,0.00,CLR,,0.00,WeatherDisplay:10.37,2013-05-21 11:31:00,
2013-05-21 07:36:00,69.1,67.9,30.01,NNE,12,0.0,0.5,96,0.00,CLR,,0.00,WeatherDisplay:10.37,2013-05-21 11:36:00,
2013-05-21 07:41:00,69.1,67.9,30.01,NE,48,2.0,2.0,96,0.00,CLR,,0.00,WeatherDisplay:10.37,2013-05-21 11:41:00,
2013-05-21 07:46:00,69.1,67.9,30.01,ESE,120,2.0,2.0,96,0.00,CLR,,0.00,WeatherDisplay:10.37,2013-05-21 11:46:00,
2013-05-21 07:51:00,69.2,68.0,30.01,NNE,23,0.0,0.6,96,0.00,CLR,,0.00,WeatherDisplay:10.37,2013-05-21 11:51:00,
2013-05-21 07:56:00,69.3,68.1,30.01,SW,233,2.3,2.3,96,0.00,CLR,,0.00,WeatherDisplay:10.37,2013-05-21 11:56:00,
2013-05-21 08:01:00,69.4,68.2,30.01,East,94,0.0,0.0,96,0.00,CLR,,0.00,WeatherDisplay:10.37,2013-05-21 12:01:00,
2013-05-21 08:06:00,69.5,68.3,30.01,SSW,203,2.0,2.0,96,0.00,CLR,,0.00,WeatherDisplay:10.37,2013-05-21 12:06:00,
2013-05-21 08:11:00,69.6,68.4,30.01,ESE,121,1.1,1.1,96,0.00,CLR,,0.00,WeatherDisplay:10.37,2013-05-21 12:11:00,
2013-05-21 08:16:00,69.7,68.5,30.01,SE,134,1.1,0.0,96,0.00,CLR,,0.00,WeatherDisplay:10.37,2013-05-21 12:16:00,
2013-05-21 08:21:00,69.7,68.2,30.01,East,100,1.1,1.1,95,0.00,CLR,,0.00,WeatherDisplay:10.37,2013-05-21 12:21:00,
2013-05-21 08:26:00,69.8,68.3,30.02,SE,138,2.3,2.3,95,0.00,CLR,,0.00,WeatherDisplay:10.37,2013-05-21 12:26:00,
2013-05-21 08:31:00,69.9,68.4,30.02,ENE,61,0.0,0.1,95,0.00,CLR,,0.00,WeatherDisplay:10.37,2013-05-21 12:31:00,
2013-05-21 08:36:00,70.0,68.5,30.02,WSW,248,1.1,1.1,95,0.00,CLR,,0.00,WeatherDisplay:10.37,2013-05-21 12:36:00,
2013-05-21 08:41:00,70.1,68.6,30.02,East,84,1.1,0.0,95,0.00,CLR,,0.00,WeatherDisplay:10.37,2013-05-21 12:41:00,
2013-05-21 08:46:00,70.2,68.7,30.02,WNW,297,3.5,0.0,95,0.00,CLR,,0.00,WeatherDisplay:10.37,2013-05-21 12:46:00,
2013-05-21 08:51:00,70.3,68.5,30.02,WSW,243,3.5,3.5,94,0.00,CLR,,0.00,WeatherDisplay:10.37,2013-05-21 12:51:00,
2013-05-21 08:56:00,70.5,68.7,30.02,WNW,294,3.5,3.5,94,0.00,CLR,,0.00,WeatherDisplay:10.37,2013-05-21 12:56:00,
2013-05-21 09:01:00,70.7,68.9,30.02,SSW,204,3.5,0.0,94,0.00,CLR,,0.00,WeatherDisplay:10.37,2013-05-21 13:01:00,
2013-05-21 09:06:00,71.0,68.9,30.02,SSW,205,3.5,3.5,93,0.00,CLR,,0.00,WeatherDisplay:10.37,2013-05-21 13:06:00,
2013-05-21 09:11:00,71.2,68.8,30.02,NW,324,3.5,3.5,92,0.00,CLR,,0.00,WeatherDisplay:10.37,2013-05-21 13:11:00,
2013-05-21 09:16:00,71.3,68.9,30.02,SE,131,3.5,3.5,92,0.00,CLR,,0.00,WeatherDisplay:10.37,2013-05-21 13:16:00,
2013-05-21 09:21:00,71.3,68.9,30.02,WSW,246,2.3,2.3,92,0.00,CLR,,0.00,WeatherDisplay:10.37,2013-05-21 13:21:00,
2013-05-21 09:26:00,71.3,68.9,30.02,SE,132,1.1,0.0,92,0.00,CLR,,0.00,WeatherDisplay:10.37,2013-05-21 13:26:00,
2013-05-21 09:31:00,71.3,68.9,30.03,SW,221,1.0,1.0,92,0.00,CLR,,0.00,WeatherDisplay:10.37,2013-05-21 13:31:00,
2013-05-21 09:36:00,71.4,69.0,30.02,East,94,1.0,1.2,92,0.00,CLR,,0.00,WeatherDisplay:10.37,2013-05-21 13:36:00,
2013-05-21 09:42:00,71.6,68.8,30.02,WSW,257,3.5,3.5,91,0.00,CLR,,0.00,WeatherDisplay:10.37,2013-05-21 13:42:00,
2013-05-21 09:47:00,71.7,69.3,30.02,SE,124,2.3,2.3,92,0.00,CLR,,0.00,WeatherDisplay:10.37,2013-05-21 13:47:00,
2013-05-21 09:52:00,72.1,69.3,30.02,WSW,248,4.6,4.6,91,0.00,CLR,,0.00,WeatherDisplay:10.37,2013-05-21 13:52:00,
2013-05-21 09:57:00,72.5,69.4,30.02,SE,132,3.5,3.5,90,0.00,CLR,,0.00,WeatherDisplay:10.37,2013-05-21 13:57:00,
2013-05-21 10:02:00,72.7,69.6,30.02,NE,54,1.1,1.1,90,0.00,CLR,,0.00,WeatherDisplay:10.37,2013-05-21 14:02:00,
2013-05-21 10:07:00,72.9,69.5,30.01,SW,225,3.0,3.0,89,0.00,CLR,,0.00,WeatherDisplay:10.37,2013-05-21 14:07:00,
2013-05-21 10:12:00,73.1,69.3,30.01,WSW,258,3.5,3.5,88,0.00,CLR,,0.00,WeatherDisplay:10.37,2013-05-21 14:12:00,
2013-05-21 10:17:00,73.5,69.7,30.01,East,84,1.1,1.1,88,0.00,CLR,,0.00,WeatherDisplay:10.37,2013-05-21 14:17:00,
2013-05-21 10:22:00,73.8,69.7,30.02,WNW,287,2.3,2.3,87,0.00,CLR,,0.00,WeatherDisplay:10.37,2013-05-21 14:22:00,
2013-05-21 10:27:00,74.2,70.1,30.02,SSW,211,1.1,1.1,87,0.00,CLR,,0.00,WeatherDisplay:10.37,2013-05-21 14:27:00,
2013-05-21 10:32:00,74.5,70.4,30.02,East,79,2.3,2.3,87,0.00,CLR,,0.00,WeatherDisplay:10.37,2013-05-21 14:32:00,
2013-05-21 10:37:00,74.8,70.3,30.02,SE,128,3.5,3.5,86,0.00,CLR,,0.00,WeatherDisplay:10.37,2013-05-21 14:37:00,
2013-05-21 10:42:00,74.9,70.1,30.02,ESE,117,3.5,3.5,85,0.00,CLR,,0.00,WeatherDisplay:10.37,2013-05-21 14:42:00,
2013-05-21 10:47:00,74.9,70.1,30.02,SSW,201,3.5,3.5,85,0.00,CLR,,0.00,WeatherDisplay:10.37,2013-05-21 14:47:00,
2013-05-21 10:52:00,75.0,70.2,30.02,NW,312,3.5,3.5,85,0.00,CLR,,0.00,WeatherDisplay:10.37,2013-05-21 14:52:00,
2013-05-21 10:57:00,75.3,70.5,30.02,East,89,3.5,3.5,85,0.00,CLR,,0.00,WeatherDisplay:10.37,2013-05-21 14:57:00,
2013-05-21 11:02:00,75.5,70.7,30.02,NNE,20,2.3,2.3,85,0.00,CLR,,0.00,WeatherDisplay:10.37,2013-05-21 15:02:00,
2013-05-21 11:07:00,75.5,70.7,30.02,SW,228,3.5,3.5,85,0.00,CLR,,0.00,WeatherDisplay:10.37,2013-05-21 15:07:00,
2013-05-21 11:12:00,75.7,70.5,30.02,ENE,68,3.5,3.5,84,0.00,CLR,,0.00,WeatherDisplay:10.37,2013-05-21 15:12:00,
2013-05-21 11:17:00,76.0,71.2,30.02,SW,226,2.3,2.3,85,0.00,CLR,,0.00,WeatherDisplay:10.37,2013-05-21 15:17:00,
2013-05-21 11:22:00,76.8,71.6,30.02,NW,307,0.0,0.0,84,0.00,CLR,,0.00,WeatherDisplay:10.37,2013-05-21 15:22:00,
2013-05-21 11:27:00,77.5,71.6,30.02,ESE,117,3.0,3.0,82,0.00,CLR,,0.00,WeatherDisplay:10.37,2013-05-21 15:27:00,
2013-05-21 11:32:00,77.8,71.5,30.02,West,274,0.0,0.0,81,0.00,CLR,,0.00,WeatherDisplay:10.37,2013-05-21 15:32:00,
2013-05-21 11:37:00,78.0,71.3,30.02,ESE,104,3.0,3.0,80,0.00,CLR,,0.00,WeatherDisplay:10.37,2013-05-21 15:37:00,
2013-05-21 11:42:00,77.9,71.2,30.02,NNW,348,2.3,2.3,80,0.00,CLR,,0.00,WeatherDisplay:10.37,2013-05-21 15:42:00,
2013-05-21 11:47:00,77.6,70.9,30.02,NE,51,2.3,2.3,80,0.00,CLR,,0.00,WeatherDisplay:10.37,2013-05-21 15:47:00,
2013-05-21 11:52:00,77.6,71.3,30.02,ESE,110,1.1,1.1,81,0.00,CLR,,0.00,WeatherDisplay:10.37,2013-05-21 15:52:00,
2013-05-21 11:57:00,77.2,71.3,30.01,WSW,253,6.9,6.9,82,0.00,CLR,,0.00,WeatherDisplay:10.37,2013-05-21 15:57:00,
2013-05-21 12:02:00,77.2,71.3,30.01,NE,47,3.5,3.5,82,0.00,CLR,,0.00,WeatherDisplay:10.37,2013-05-21 16:02:00,
2013-05-21 12:07:00,77.1,71.2,30.01,SE,125,3.5,3.5,82,0.00,CLR,,0.00,WeatherDisplay:10.37,2013-05-21 16:07:00,
2013-05-21 12:12:00,77.3,71.7,30.01,East,88,2.0,2.0,83,0.00,CLR,,0.00,WeatherDisplay:10.37,2013-05-21 16:12:00,
2013-05-21 12:17:00,77.4,71.5,30.01,SE,127,3.5,3.5,82,0.00,CLR,,0.00,WeatherDisplay:10.37,2013-05-21 16:17:00,
2013-05-21 12:22:00,77.8,71.5,30.01,WSW,243,4.6,4.6,81,0.00,CLR,,0.00,WeatherDisplay:10.37,2013-05-21 16:22:00,
2013-05-21 12:27:00,78.4,72.1,30.00,WNW,285,2.0,2.0,81,0.00,CLR,,0.00,WeatherDisplay:10.37,2013-05-21 16:27:00,
2013-05-21 12:32:00,79.0,72.3,30.00,WSW,248,4.6,4.6,80,0.00,CLR,,0.00,WeatherDisplay:10.37,2013-05-21 16:32:00,
2013-05-21 12:37:00,78.6,71.2,30.00,ESE,110,5.8,5.8,78,0.00,CLR,,0.00,WeatherDisplay:10.37,2013-05-21 16:37:00,
2013-05-21 12:42:00,78.5,71.4,30.00,West,260,0.0,0.0,79,0.00,CLR,,0.00,WeatherDisplay:10.37,2013-05-21 16:42:00,
2013-05-21 12:47:00,78.8,71.7,30.00,NW,305,2.3,2.3,79,0.00,CLR,,0.00,WeatherDisplay:10.37,2013-05-21 16:47:00,
2013-05-21 12:52:00,78.5,71.4,30.00,SW,229,5.8,5.8,79,0.00,CLR,,0.00,WeatherDisplay:10.37,2013-05-21 16:52:00,
2013-05-21 12:57:00,78.8,72.1,30.00,WSW,240,3.5,3.5,80,0.00,CLR,,0.00,WeatherDisplay:10.37,2013-05-21 16:57:00,
2013-05-21 13:02:00,79.2,71.4,29.99,NNW,328,2.3,2.3,77,0.00,CLR,,0.00,WeatherDisplay:10.37,2013-05-21 17:02:00,
2013-05-21 13:07:00,79.4,71.9,29.99,WSW,246,4.6,4.6,78,0.00,CLR,,0.00,WeatherDisplay:10.37,2013-05-21 17:07:00,
2013-05-21 13:12:00,79.4,71.9,29.99,ESE,113,2.3,2.3,78,0.00,CLR,,0.00,WeatherDisplay:10.37,2013-05-21 17:12:00,
2013-05-21 13:17:00,79.9,72.0,29.98,East,81,3.5,3.5,77,0.00,CLR,,0.00,WeatherDisplay:10.37,2013-05-21 17:17:00,
2013-05-21 13:22:00,80.6,73.5,29.98,West,273,1.1,1.1,79,0.00,CLR,,0.00,WeatherDisplay:10.37,2013-05-21 17:22:00,
2013-05-21 13:27:00,80.9,72.2,29.98,WSW,239,2.3,2.3,75,0.00,CLR,,0.00,WeatherDisplay:10.37,2013-05-21 17:27:00,
2013-05-21 13:32:00,81.2,72.1,29.98,West,274,4.6,4.6,74,0.00,CLR,,0.00,WeatherDisplay:10.37,2013-05-21 17:32:00,
2013-05-21 13:37:00,81.5,73.2,29.97,SW,224,1.1,1.1,76,0.00,CLR,,0.00,WeatherDisplay:10.37,2013-05-21 17:37:00,
2013-05-21 13:42:00,82.1,73.4,29.98,NW,314,2.3,2.3,75,0.00,CLR,,0.00,WeatherDisplay:10.37,2013-05-21 17:42:00,
2013-05-21 13:47:00,82.5,72.6,29.98,North,360,1.1,1.1,72,0.00,CLR,,0.00,WeatherDisplay:10.37,2013-05-21 17:47:00,
2013-05-21 13:52:00,81.9,72.0,29.98,North,349,3.5,3.5,72,0.00,CLR,,0.00,WeatherDisplay:10.37,2013-05-21 17:52:00,
2013-05-21 13:57:00,81.4,72.3,29.98,WNW,295,3.5,3.5,74,0.00,CLR,,0.00,WeatherDisplay:10.37,2013-05-21 17:57:00,
2013-05-21 14:02:00,82.0,73.3,29.97,East,100,2.3,2.3,75,0.00,CLR,,0.00,WeatherDisplay:10.37,2013-05-21 18:02:00,
2013-05-21 14:07:00,82.9,72.9,29.97,ESE,108,3.5,3.5,72,0.00,CLR,,0.00,WeatherDisplay:10.37,2013-05-21 18:07:00,
2013-05-21 14:12:00,83.3,72.5,29.98,East,88,4.6,4.6,70,0.00,CLR,,0.00,WeatherDisplay:10.37,2013-05-21 18:12:00,
2013-05-21 14:17:00,82.9,71.7,29.97,WSW,238,3.5,3.5,69,0.00,CLR,,0.00,WeatherDisplay:10.37,2013-05-21 18:17:00,
2013-05-21 14:22:00,82.6,71.8,29.97,West,281,3.5,3.5,70,0.00,CLR,,0.00,WeatherDisplay:10.37,2013-05-21 18:22:00,
2013-05-21 14:27:00,83.2,72.0,29.96,SE,134,3.5,3.5,69,0.00,CLR,,0.00,WeatherDisplay:10.37,2013-05-21 18:27:00,
2013-05-21 14:32:00,83.6,71.9,29.96,West,263,5.8,5.8,68,0.00,CLR,,0.00,WeatherDisplay:10.37,2013-05-21 18:32:00,
2013-05-21 14:37:00,83.7,72.0,29.96,West,274,3.5,3.5,68,0.00,CLR,,0.00,WeatherDisplay:10.37,2013-05-21 18:37:00,
2013-05-21 14:42:00,84.4,71.3,29.96,WSW,246,2.3,2.3,65,0.00,CLR,,0.00,WeatherDisplay:10.37,2013-05-21 18:42:00,
2013-05-21 14:47:00,84.2,71.6,29.96,ENE,68,3.0,3.0,66,0.00,CLR,,0.00,WeatherDisplay:10.37,2013-05-21 18:47:00,
2013-05-21 14:52:00,84.6,72.9,29.96,WNW,289,3.0,3.0,68,0.00,CLR,,0.00,WeatherDisplay:10.37,2013-05-21 18:52:00,
2013-05-21 14:57:00,84.6,71.1,29.96,WSW,258,2.3,2.3,64,0.00,CLR,,0.00,WeatherDisplay:10.37,2013-05-21 18:57:00,
2013-05-21 15:02:00,85.1,70.6,29.96,ESE,122,4.6,4.6,62,0.00,CLR,,0.00,WeatherDisplay:10.37,2013-05-21 19:02:00,
2013-05-21 15:07:00,85.4,72.3,29.95,NNE,25,1.1,1.1,65,0.00,CLR,,0.00,WeatherDisplay:10.37,2013-05-21 19:07:00,
2013-05-21 15:12:00,85.5,71.5,29.95,NNE,26,3.5,3.5,63,0.00,CLR,,0.00,WeatherDisplay:10.37,2013-05-21 19:12:00,
2013-05-21 15:17:00,85.6,71.1,29.94,SE,139,1.1,1.1,62,0.00,CLR,,0.00,WeatherDisplay:10.37,2013-05-21 19:17:00,
2013-05-21 15:22:00,86.1,72.0,29.94,WSW,246,2.3,2.3,63,0.00,CLR,,0.00,WeatherDisplay:10.37,2013-05-21 19:22:00,
2013-05-21 15:27:00,86.6,72.0,29.94,WNW,290,2.0,2.0,62,0.00,CLR,,0.00,WeatherDisplay:10.37,2013-05-21 19:27:00,
2013-05-21 15:32:00,86.8,70.8,29.94,SE,131,3.5,3.5,59,0.00,CLR,,0.00,WeatherDisplay:10.37,2013-05-21 19:32:00,
2013-05-21 15:37:00,86.9,69.8,29.93,ENE,64,3.5,3.5,57,0.00,CLR,,0.00,WeatherDisplay:10.37,2013-05-21 19:37:00,
2013-05-21 15:42:00,86.8,70.8,29.93,East,101,1.1,1.1,59,0.00,CLR,,0.00,WeatherDisplay:10.37,2013-05-21 19:42:00,
2013-05-21 15:47:00,87.1,70.0,29.93,WNW,288,3.5,3.5,57,0.00,CLR,,0.00,WeatherDisplay:10.37,2013-05-21 19:47:00,
2013-05-21 15:52:00,86.4,70.9,29.93,ENE,71,3.5,3.5,60,0.00,CLR,,0.00,WeatherDisplay:10.37,2013-05-21 19:52:00,
2013-05-21 15:57:00,85.9,71.4,29.93,West,272,3.5,3.5,62,0.00,CLR,,0.00,WeatherDisplay:10.37,2013-05-21 19:57:00,
2013-05-21 16:02:00,86.1,71.6,29.93,WNW,290,1.1,0.0,62,0.00,CLR,,0.00,WeatherDisplay:10.37,2013-05-21 20:02:00,
2013-05-21 16:07:00,86.9,71.3,29.93,NNW,347,3.5,3.5,60,0.00,CLR,,0.00,WeatherDisplay:10.37,2013-05-21 20:07:00,
2013-05-21 16:12:00,87.2,70.1,29.93,West,275,3.5,3.5,57,0.00,CLR,,0.00,WeatherDisplay:10.37,2013-05-21 20:12:00,
2013-05-21 16:17:00,86.7,71.6,29.93,West,264,6.9,6.9,61,0.00,CLR,,0.00,WeatherDisplay:10.37,2013-05-21 20:17:00,
2013-05-21 16:22:00,85.3,72.2,29.93,SSW,205,4.6,4.6,65,0.00,CLR,,0.00,WeatherDisplay:10.37,2013-05-21 20:22:00,
2013-05-21 16:27:00,83.6,71.5,29.93,East,101,8.1,8.1,67,0.00,CLR,,0.00,WeatherDisplay:10.37,2013-05-21 20:27:00,
2013-05-21 16:32:00,82.6,71.8,29.93,West,276,2.3,2.6,70,0.00,CLR,,0.00,WeatherDisplay:10.37,2013-05-21 20:32:00,
2013-05-21 16:37:00,82.2,71.4,29.93,East,90,4.6,4.6,70,0.00,CLR,,0.00,WeatherDisplay:10.37,2013-05-21 20:37:00,
2013-05-21 16:42:00,81.7,71.4,29.93,East,84,5.8,5.8,71,0.00,CLR,,0.00,WeatherDisplay:10.37,2013-05-21 20:42:00,
2013-05-21 16:47:00,80.9,71.4,29.93,SE,126,3.5,3.5,73,0.00,CLR,,0.00,WeatherDisplay:10.37,2013-05-21 20:47:00,
2013-05-21 16:52:00,80.2,71.6,29.93,SE,129,6.0,6.0,75,0.00,CLR,,0.00,WeatherDisplay:10.37,2013-05-21 20:52:00,
2013-05-21 16:57:00,80.1,71.8,29.93,East,94,4.0,4.0,76,0.00,CLR,,0.00,WeatherDisplay:10.37,2013-05-21 20:57:00,
2013-05-21 17:02:00,80.3,71.6,29.93,ESE,123,4.0,4.0,75,0.00,CLR,,0.00,WeatherDisplay:10.37,2013-05-21 21:02:00,
2013-05-21 17:07:00,80.5,71.4,29.93,SW,236,3.5,3.5,74,0.00,CLR,,0.00,WeatherDisplay:10.37,2013-05-21 21:07:00,
2013-05-21 17:12:00,80.7,71.2,29.93,ESE,103,4.6,4.6,73,0.00,CLR,,0.00,WeatherDisplay:10.37,2013-05-21 21:12:00,
2013-05-21 17:17:00,80.8,71.3,29.94,ESE,106,6.9,6.9,73,0.00,CLR,,0.00,WeatherDisplay:10.37,2013-05-21 21:17:00,
2013-05-21 17:22:00,80.6,70.3,29.93,SE,135,8.1,8.1,71,0.00,CLR,,0.00,WeatherDisplay:10.37,2013-05-21 21:22:00,
2013-05-21 17:27:00,80.5,70.2,29.93,SSW,203,3.0,3.0,71,0.00,CLR,,0.00,WeatherDisplay:10.37,2013-05-21 21:27:00,
2013-05-21 17:32:00,80.6,69.9,29.93,East,99,2.3,2.5,70,0.00,CLR,,0.00,WeatherDisplay:10.37,2013-05-21 21:32:00,
2013-05-21 17:37:00,80.5,69.4,29.93,ENE,67,5.0,5.0,69,0.00,CLR,,0.00,WeatherDisplay:10.37,2013-05-21 21:37:00,
2013-05-21 17:42:00,80.4,69.7,29.94,WSW,248,6.0,6.0,70,0.00,CLR,,0.00,WeatherDisplay:10.37,2013-05-21 21:42:00,
2013-05-21 17:47:00,80.5,70.2,29.93,SSE,148,3.5,3.5,71,0.00,CLR,,0.00,WeatherDisplay:10.37,2013-05-21 21:47:00,
2013-05-21 17:52:00,80.6,70.7,29.93,ENE,63,3.5,3.5,72,0.00,CLR,,0.00,WeatherDisplay:10.37,2013-05-21 21:52:00,
2013-05-21 17:57:00,81.0,71.9,29.93,East,80,2.3,2.3,74,0.00,CLR,,0.00,WeatherDisplay:10.37,2013-05-21 21:57:00,
2013-05-21 18:02:00,81.3,71.8,29.93,East,79,4.6,4.6,73,0.00,CLR,,0.00,WeatherDisplay:10.37,2013-05-21 22:02:00,
2013-05-21 18:07:00,81.1,71.6,29.93,SE,146,3.5,3.5,73,0.00,CLR,,0.00,WeatherDisplay:10.37,2013-05-21 22:07:00,
2013-05-21 18:12:00,80.9,71.8,29.93,SSE,168,1.1,3.8,74,0.00,CLR,,0.00,WeatherDisplay:10.37,2013-05-21 22:12:00,
2013-05-21 18:17:00,80.7,71.6,29.93,SSE,147,3.5,3.5,74,0.00,CLR,,0.00,WeatherDisplay:10.37,2013-05-21 22:17:00,
2013-05-21 18:22:00,80.2,71.6,29.93,ENE,72,9.2,9.2,75,0.00,CLR,,0.00,WeatherDisplay:10.37,2013-05-21 22:22:00,
2013-05-21 18:27:00,80.4,71.7,29.93,SE,131,5.8,5.8,75,0.00,CLR,,0.00,WeatherDisplay:10.37,2013-05-21 22:27:00,
2013-05-21 18:32:00,80.3,71.6,29.93,NW,304,3.5,3.5,75,0.00,CLR,,0.00,WeatherDisplay:10.37,2013-05-21 22:32:00,
2013-05-21 18:37:00,79.9,71.7,29.92,NNE,14,5.8,5.8,76,0.00,CLR,,0.00,WeatherDisplay:10.37,2013-05-21 22:37:00,
2013-05-21 18:42:00,79.6,71.4,29.93,SW,219,3.5,3.5,76,0.00,CLR,,0.00,WeatherDisplay:10.37,2013-05-21 22:42:00,
2013-05-21 18:47:00,79.4,71.6,29.93,ESE,111,3.5,3.5,77,0.00,CLR,,0.00,WeatherDisplay:10.37,2013-05-21 22:47:00,
2013-05-21 18:52:00,79.2,71.7,29.93,SE,125,8.1,8.1,78,0.00,CLR,,0.00,WeatherDisplay:10.37,2013-05-21 22:52:00,
2013-05-21 18:57:00,78.9,71.5,29.92,East,92,3.5,3.5,78,0.00,CLR,,0.00,WeatherDisplay:10.37,2013-05-21 22:57:00,
2013-05-21 19:02:00,78.9,71.5,29.93,East,79,2.3,2.3,78,0.00,CLR,,0.00,WeatherDisplay:10.37,2013-05-21 23:02:00,
2013-05-21 19:07:00,78.5,71.1,29.93,ESE,119,4.0,4.0,78,0.00,CLR,,0.00,WeatherDisplay:10.37,2013-05-21 23:07:00,
2013-05-21 19:12:00,78.0,70.6,29.93,SSW,197,4.6,4.6,78,0.00,CLR,,0.00,WeatherDisplay:10.37,2013-05-21 23:12:00,
2013-05-21 19:17:00,77.6,70.6,29.93,ESE,119,4.0,4.0,79,0.00,CLR,,0.00,WeatherDisplay:10.37,2013-05-21 23:17:00,
2013-05-21 19:22:00,77.2,70.2,29.93,ENE,78,8.1,8.1,79,0.00,CLR,,0.00,WeatherDisplay:10.37,2013-05-21 23:22:00,
2013-05-21 19:27:00,77.0,70.4,29.92,SSW,207,3.5,3.5,80,0.00,CLR,,0.00,WeatherDisplay:10.37,2013-05-21 23:27:00,
2013-05-21 19:32:00,76.7,70.4,29.92,SE,141,2.3,2.3,81,0.00,CLR,,0.00,WeatherDisplay:10.37,2013-05-21 23:32:00,
2013-05-21 19:37:00,76.5,70.6,29.92,SSW,211,3.5,3.5,82,0.00,CLR,,0.00,WeatherDisplay:10.37,2013-05-21 23:37:00,
2013-05-21 19:42:00,76.2,70.7,29.92,SSW,205,3.5,3.5,83,0.00,CLR,,0.00,WeatherDisplay:10.37,2013-05-21 23:42:00,
2013-05-21 19:47:00,76.0,70.5,29.92,SW,215,3.5,3.5,83,0.00,CLR,,0.00,WeatherDisplay:10.37,2013-05-21 23:47:00,
2013-05-21 19:52:00,75.9,70.7,29.92,SSE,148,0.0,0.0,84,0.00,CLR,,0.00,WeatherDisplay:10.37,2013-05-21 23:52:00,
2013-05-21 19:57:00,75.6,70.4,29.92,SW,221,1.1,1.1,84,0.00,CLR,,0.00,WeatherDisplay:10.37,2013-05-21 23:57:00,
2013-05-21 20:02:00,75.3,69.8,29.92,ENE,60,1.1,0.0,83,0.00,CLR,,0.00,WeatherDisplay:10.37,2013-05-22 00:02:00,
2013-05-21 20:07:00,75.1,69.2,29.92,ENE,58,0.0,0.4,82,0.00,CLR,,0.00,WeatherDisplay:10.37,2013-05-22 00:07:00,
2013-05-21 20:12:00,74.8,68.9,29.92,ENE,64,2.3,2.3,82,0.00,CLR,,0.00,WeatherDisplay:10.37,2013-05-22 00:12:00,
2013-05-21 20:17:00,74.6,69.1,29.92,ESE,105,0.0,0.1,83,0.00,CLR,,0.00,WeatherDisplay:10.37,2013-05-22 00:17:00,
2013-05-21 20:22:00,74.4,69.2,29.93,ESE,104,0.0,0.2,84,0.00,CLR,,0.00,WeatherDisplay:10.37,2013-05-22 00:22:00,
2013-05-21 20:27:00,74.1,69.0,29.93,ESE,121,4.6,4.6,84,0.00,CLR,,0.00,WeatherDisplay:10.37,2013-05-22 00:27:00,
2013-05-21 20:32:00,73.8,69.0,29.93,SSW,197,3.5,3.5,85,0.00,CLR,,0.00,WeatherDisplay:10.37,2013-05-22 00:32:00,
2013-05-21 20:38:00,73.6,68.8,29.92,WSW,239,1.1,1.3,85,0.00,CLR,,0.00,WeatherDisplay:10.37,2013-05-22 00:38:00,
2013-05-21 20:43:00,73.4,68.6,29.92,NNW,340,3.5,3.5,85,0.00,CLR,,0.00,WeatherDisplay:10.37,2013-05-22 00:43:00,
2013-05-21 20:48:00,73.2,68.8,29.92,East,85,1.1,1.1,86,0.00,CLR,,0.00,WeatherDisplay:10.37,2013-05-22 00:48:00,
2013-05-21 20:53:00,73.0,68.6,29.92,SE,143,3.5,3.5,86,0.00,CLR,,0.00,WeatherDisplay:10.37,2013-05-22 00:53:00,
2013-05-21 20:58:00,72.9,68.5,29.92,East,88,1.1,1.1,86,0.00,CLR,,0.00,WeatherDisplay:10.37,2013-05-22 00:58:00,
2013-05-21 21:03:00,72.7,68.6,29.92,SW,228,1.1,1.1,87,0.00,CLR,,0.00,WeatherDisplay:10.37,2013-05-22 01:03:00,
2013-05-21 21:08:00,72.5,68.7,29.92,ENE,58,2.3,2.3,88,0.00,CLR,,0.00,WeatherDisplay:10.37,2013-05-22 01:08:00,
2013-05-21 21:13:00,72.3,68.5,29.92,SSE,158,3.5,3.5,88,0.00,CLR,,0.00,WeatherDisplay:10.37,2013-05-22 01:13:00,
2013-05-21 21:18:00,72.1,68.3,29.93,SSE,150,0.0,0.0,88,0.00,CLR,,0.00,WeatherDisplay:10.37,2013-05-22 01:18:00,
2013-05-21 21:23:00,71.9,68.5,29.93,SSE,163,0.0,0.0,89,0.00,CLR,,0.00,WeatherDisplay:10.37,2013-05-22 01:23:00,
2013-05-21 21:28:00,71.8,68.4,29.93,ESE,115,0.0,0.0,89,0.00,CLR,,0.00,WeatherDisplay:10.37,2013-05-22 01:28:00,
2013-05-21 21:33:00,71.6,68.5,29.94,WSW,242,1.1,1.1,90,0.00,CLR,,0.00,WeatherDisplay:10.37,2013-05-22 01:33:00,
2013-05-21 21:38:00,71.5,68.4,29.94,NNE,30,0.0,0.0,90,0.00,CLR,,0.00,WeatherDisplay:10.37,2013-05-22 01:38:00,
2013-05-21 21:43:00,71.4,68.3,29.94,ENE,62,1.1,1.1,90,0.00,CLR,,0.00,WeatherDisplay:10.37,2013-05-22 01:43:00,
2013-05-21 21:48:00,71.4,68.6,29.94,WSW,252,1.1,1.1,91,0.00,CLR,,0.00,WeatherDisplay:10.37,2013-05-22 01:48:00,
2013-05-21 21:53:00,71.4,68.6,29.94,East,96,2.3,2.3,91,0.00,CLR,,0.00,WeatherDisplay:10.37,2013-05-22 01:53:00,
2013-05-21 21:58:00,71.3,68.5,29.94,SSE,155,0.0,0.0,91,0.00,CLR,,0.00,WeatherDisplay:10.37,2013-05-22 01:58:00,
2013-05-21 22:03:00,71.2,68.4,29.94,ESE,109,1.1,0.0,91,0.00,CLR,,0.00,WeatherDisplay:10.37,2013-05-22 02:03:00,
2013-05-21 22:08:00,71.1,68.3,29.94,SE,126,0.0,0.0,91,0.00,CLR,,0.00,WeatherDisplay:10.37,2013-05-22 02:08:00,
2013-05-21 22:13:00,70.9,68.1,29.94,ESE,115,0.0,0.0,91,0.00,CLR,,0.00,WeatherDisplay:10.37,2013-05-22 02:13:00,
2013-05-21 22:18:00,70.8,68.4,29.95,SE,129,1.1,1.1,92,0.00,CLR,,0.00,WeatherDisplay:10.37,2013-05-22 02:18:00,
2013-05-21 22:23:00,70.6,68.2,29.95,ESE,117,1.1,0.0,92,0.00,CLR,,0.00,WeatherDisplay:10.37,2013-05-22 02:23:00,
2013-05-21 22:28:00,70.5,68.1,29.95,East,92,0.0,0.0,92,0.00,CLR,,0.00,WeatherDisplay:10.37,2013-05-22 02:28:00,
2013-05-21 22:33:00,70.3,68.2,29.95,East,89,1.1,1.1,93,0.00,CLR,,0.00,WeatherDisplay:10.37,2013-05-22 02:33:00,
2013-05-21 22:38:00,70.2,68.1,29.95,ENE,72,1.1,1.1,93,0.00,CLR,,0.00,WeatherDisplay:10.37,2013-05-22 02:38:00,
2013-05-21 22:43:00,70.2,68.1,29.96,East,94,3.5,3.5,93,0.00,CLR,,0.00,WeatherDisplay:10.37,2013-05-22 02:43:00,
2013-05-21 22:48:00,70.1,68.0,29.96,ENE,57,0.0,0.0,93,0.00,CLR,,0.00,WeatherDisplay:10.37,2013-05-22 02:48:00,
2013-05-21 22:53:00,70.0,68.2,29.95,SE,129,3.5,3.5,94,0.00,CLR,,0.00,WeatherDisplay:10.37,2013-05-22 02:53:00,
2013-05-21 22:58:00,69.9,68.1,29.96,ESE,115,1.1,0.0,94,0.00,CLR,,0.00,WeatherDisplay:10.37,2013-05-22 02:58:00,
2013-05-21 23:03:00,69.9,68.1,29.96,SE,146,0.0,0.0,94,0.00,CLR,,0.00,WeatherDisplay:10.37,2013-05-22 03:03:00,
2013-05-21 23:08:00,69.8,68.0,29.96,SW,232,1.1,0.0,94,0.00,CLR,,0.00,WeatherDisplay:10.37,2013-05-22 03:08:00,
2013-05-21 23:13:00,69.8,68.0,29.96,ENE,70,0.0,0.0,94,0.00,CLR,,0.00,WeatherDisplay:10.37,2013-05-22 03:13:00,
2013-05-21 23:18:00,69.7,67.9,29.96,ENE,68,0.0,0.0,94,0.00,CLR,,0.00,WeatherDisplay:10.37,2013-05-22 03:18:00,
2013-05-21 23:23:00,69.6,68.1,29.96,West,269,0.0,0.0,95,0.00,CLR,,0.00,WeatherDisplay:10.37,2013-05-22 03:23:00,
2013-05-21 23:28:00,69.6,68.1,29.96,SSE,147,0.0,0.0,95,0.00,CLR,,0.00,WeatherDisplay:10.37,2013-05-22 03:28:00,
2013-05-21 23:33:00,69.7,68.2,29.96,ENE,75,0.0,0.0,95,0.00,CLR,,0.00,WeatherDisplay:10.37,2013-05-22 03:33:00,
2013-05-21 23:38:00,69.7,68.2,29.96,ENE,67,1.1,1.1,95,0.00,CLR,,0.00,WeatherDisplay:10.37,2013-05-22 03:38:00,
2013-05-21 23:43:00,69.8,68.3,29.96,SSE,147,1.0,1.0,95,0.00,CLR,,0.00,WeatherDisplay:10.37,2013-05-22 03:43:00,
2013-05-21 23:48:00,69.9,68.4,29.96,West,274,3.5,3.5,95,0.00,CLR,,0.00,WeatherDisplay:10.37,2013-05-22 03:48:00,
2013-05-21 23:53:00,70.1,68.6,29.97,ESE,113,4.0,4.0,95,0.00,CLR,,0.00,WeatherDisplay:10.37,2013-05-22 03:53:00,
2013-05-21 23:58:00,70.2,68.7,29.97,SE,134,3.0,3.0,95,0.00,CLR,,0.00,WeatherDisplay:10.37,2013-05-22 03:58:00,